ユジノサハリンスク の空港の天気 - METARとTAF

ホムトヴォ空港(ユジノサハリンスク) ( UHSS / UUS ) - ロシア ユジノサハリンスク
飛行場実況気象(Metar)
観測時間01/22 03:00 VLAT (01/21 17:00 UTC)
風向・風速静穏 0m/s
視程10km以上
天気現象
なし
気温-28℃
湿度75%
気圧1012hPa
METARUHSS 211700Z 00000MPS 9999 NSC M28/M31 Q1012 R01/810360 NOSIG RMK QFE758/1010
過去の天気等 Google飛行場航空写真 Wunderground天気予報

過去48時間のMETAR

飛行場予報(TAF)
発表時間: 1/22 03:00 VLAT (1/21 17:00 UTC)
予報対象時間: 22日4時 VLAT ~ 23日10時 VLAT
風向・風速不定 1m/s
視程10km以上
全天の4割程度の積乱雲 雲底高度 910m
全天の8割程度の雲 雲底高度 3,050m
22日4時 VLAT ~ 23日10時 VLAT に一時的に
視程3,500m
天気現象弱いしゅう雪
全天の8割程度の積乱雲 雲底高度 300m
22日8時 VLAT ~ 22日10時 VLAT に徐々に
風向・風速西 3m/s
TAF UHSS 211700Z 2118/2224 VRB01MPS 9999 SCT030CB BKN100
TEMPO 2118/2224 3500 -SHSN BKN010CB
BECMG 2122/2124 27003MPS